createdAt,value
2024-01-07T00:00:04.263Z,-10.12
2024-01-07T00:05:08.697Z,-10.17
2024-01-07T00:10:11.964Z,-10.23
2024-01-07T00:15:15.129Z,-10.29
2024-01-07T00:20:18.337Z,-10.30
2024-01-07T00:25:21.576Z,-10.27
2024-01-07T00:30:24.824Z,-10.23
2024-01-07T00:35:27.961Z,-10.21
2024-01-07T00:40:31.182Z,-10.20
2024-01-07T00:45:34.233Z,-10.21
2024-01-07T00:50:37.398Z,-10.22
2024-01-07T00:55:40.510Z,-10.25
2024-01-07T01:00:43.840Z,-10.26
2024-01-07T01:05:47.258Z,-10.29
2024-01-07T01:10:50.243Z,-10.34
2024-01-07T01:15:53.915Z,-10.42
2024-01-07T01:20:57.693Z,-10.47
2024-01-07T01:26:00.805Z,-10.51
2024-01-07T01:31:04.246Z,-10.51
2024-01-07T01:36:08.450Z,-10.56
2024-01-07T01:41:11.558Z,-10.63
2024-01-07T01:46:15.293Z,-10.70
2024-01-07T01:51:19.240Z,-10.74
2024-01-07T01:56:23.972Z,-10.78
2024-01-07T02:01:27.866Z,-10.81
2024-01-07T02:06:31.608Z,-10.88
2024-01-07T02:11:34.816Z,-10.95
2024-01-07T02:16:37.921Z,-11.00
2024-01-07T02:21:40.951Z,-11.06
2024-01-07T02:26:44.143Z,-11.10
2024-01-07T02:31:47.263Z,-11.14
2024-01-07T02:36:50.529Z,-11.18
2024-01-07T02:41:53.584Z,-11.22
2024-01-07T02:46:56.582Z,-11.27
2024-01-07T02:51:59.603Z,-11.32
2024-01-07T02:57:02.835Z,-11.39
2024-01-07T03:02:05.975Z,-11.48
2024-01-07T03:07:09.267Z,-11.53
2024-01-07T03:12:12.324Z,-11.55
2024-01-07T03:17:18.438Z,-11.59
2024-01-07T03:22:21.621Z,-11.62
2024-01-07T03:27:24.766Z,-11.64
2024-01-07T03:32:27.953Z,-11.66
2024-01-07T03:37:30.958Z,-11.69
2024-01-07T03:42:34.101Z,-11.73
2024-01-07T03:47:37.137Z,-11.77
2024-01-07T03:52:40.378Z,-11.81
2024-01-07T03:57:43.399Z,-11.85
2024-01-07T04:02:46.496Z,-11.91
2024-01-07T04:07:49.708Z,-11.99
2024-01-07T04:12:52.855Z,-12.05
2024-01-07T04:17:56.090Z,-12.10
2024-01-07T04:22:59.581Z,-12.17
2024-01-07T04:28:02.791Z,-12.19
2024-01-07T04:33:06.018Z,-12.24
2024-01-07T04:38:09.899Z,-12.30
2024-01-07T04:43:13.044Z,-12.34
2024-01-07T04:48:16.435Z,-12.41
2024-01-07T04:53:19.542Z,-12.46
2024-01-07T04:58:22.538Z,-12.55
2024-01-07T05:03:25.737Z,-12.66
2024-01-07T05:08:29.742Z,-12.73
2024-01-07T05:13:32.992Z,-12.80
2024-01-07T05:18:36.346Z,-12.87
2024-01-07T05:23:41.056Z,-12.90
2024-01-07T05:28:44.063Z,-12.95
2024-01-07T05:33:47.335Z,-13.03
2024-01-07T05:38:50.480Z,-13.07
2024-01-07T05:43:53.592Z,-13.10
2024-01-07T05:48:57.394Z,-13.13
2024-01-07T05:54:00.633Z,-13.16
2024-01-07T05:59:03.733Z,-13.23
2024-01-07T06:04:06.859Z,-13.30
2024-01-07T06:09:10.159Z,-13.38
2024-01-07T06:14:13.675Z,-13.43
2024-01-07T06:19:20.615Z,-13.50
2024-01-07T06:24:23.786Z,-13.56
2024-01-07T06:29:26.789Z,-13.64
2024-01-07T06:34:29.989Z,-13.71
2024-01-07T06:39:35.812Z,-13.77
2024-01-07T06:44:38.880Z,-13.81
2024-01-07T06:49:41.956Z,-13.87
2024-01-07T06:54:45.154Z,-13.93
2024-01-07T06:59:48.412Z,-13.95
2024-01-07T07:04:52.805Z,-13.96
2024-01-07T07:09:56.176Z,-13.94
2024-01-07T07:14:59.401Z,-13.80
2024-01-07T07:20:02.671Z,-13.52
2024-01-07T07:25:06.899Z,-13.48
2024-01-07T07:30:10.178Z,-13.31
2024-01-07T07:35:13.557Z,-12.83
2024-01-07T07:40:16.749Z,-12.59
2024-01-07T07:45:19.887Z,-12.47
2024-01-07T07:50:23.130Z,-12.33
2024-01-07T07:55:26.501Z,-12.02
2024-01-07T08:00:29.860Z,-11.80
2024-01-07T08:05:33.261Z,-11.70
2024-01-07T08:10:36.669Z,-11.76
2024-01-07T08:15:39.798Z,-11.96
2024-01-07T08:20:43.100Z,-12.13
2024-01-07T08:25:46.813Z,-12.30
2024-01-07T08:30:50.943Z,-12.58
2024-01-07T08:35:54.053Z,-12.76
2024-01-07T08:40:57.161Z,-12.81
2024-01-07T08:46:00.326Z,-12.94
2024-01-07T08:51:04.564Z,-13.06
2024-01-07T08:56:08.229Z,-13.07
2024-01-07T09:01:11.564Z,-13.09
2024-01-07T09:06:15.122Z,-13.08
2024-01-07T09:11:21.141Z,-13.08
2024-01-07T09:16:24.368Z,-13.03
2024-01-07T09:21:27.962Z,-12.91
2024-01-07T09:26:31.184Z,-12.81
2024-01-07T09:31:34.488Z,-12.76
2024-01-07T09:36:38.089Z,-12.63
2024-01-07T09:41:41.629Z,-12.49
2024-01-07T09:46:50.897Z,-12.37
2024-01-07T09:52:00.926Z,-12.33
2024-01-07T09:57:05.640Z,-12.31
2024-01-07T10:02:09.221Z,-12.13
2024-01-07T10:07:12.377Z,-12.01
2024-01-07T10:12:16.716Z,-11.86
2024-01-07T10:17:20.145Z,-11.66
2024-01-07T10:22:23.625Z,-11.51
2024-01-07T10:27:27.014Z,-11.46
2024-01-07T10:32:30.583Z,-11.36
2024-01-07T10:37:33.849Z,-11.22
2024-01-07T10:42:39.628Z,-11.08
2024-01-07T10:47:45.639Z,-11.04
2024-01-07T10:52:58.755Z,-11.16
2024-01-07T10:58:04.411Z,-11.26
2024-01-07T11:03:21.000Z,-11.27
2024-01-07T11:08:35.790Z,-11.20
2024-01-07T11:13:40.426Z,-11.29
2024-01-07T11:18:51.042Z,-11.36
2024-01-07T11:23:57.857Z,-11.42
2024-01-07T11:29:01.982Z,-11.51
2024-01-07T11:34:05.367Z,-11.48
2024-01-07T11:39:10.766Z,-11.35
2024-01-07T11:44:16.037Z,-11.27
2024-01-07T11:49:19.287Z,-11.23
2024-01-07T11:54:22.439Z,-11.23
2024-01-07T11:59:25.552Z,-11.20
2024-01-07T12:04:29.818Z,-11.25
2024-01-07T12:09:33.360Z,-11.30
2024-01-07T12:14:36.824Z,-11.33
2024-01-07T12:19:41.847Z,-11.32
2024-01-07T12:24:45.410Z,-11.42
2024-01-07T12:29:56.450Z,-11.49
2024-01-07T12:35:00.734Z,-11.51
2024-01-07T12:40:05.524Z,-11.61
2024-01-07T12:45:12.803Z,-11.72
2024-01-07T12:50:17.870Z,-11.78
2024-01-07T12:55:21.074Z,-11.86
2024-01-07T13:00:24.532Z,-11.85
2024-01-07T13:05:28.065Z,-11.90
2024-01-07T13:10:31.399Z,-11.94
2024-01-07T13:15:34.532Z,-12.04
2024-01-07T13:20:39.355Z,-12.17
2024-01-07T13:25:42.463Z,-12.35
2024-01-07T13:30:45.753Z,-12.54
2024-01-07T13:35:48.909Z,-12.67
2024-01-07T13:40:52.806Z,-12.75
2024-01-07T13:45:56.185Z,-12.79
2024-01-07T13:50:59.546Z,-12.85
2024-01-07T13:56:02.610Z,-12.88
2024-01-07T14:01:07.193Z,-12.88
2024-01-07T14:06:10.308Z,-12.87
2024-01-07T14:11:13.431Z,-12.89
2024-01-07T14:16:16.731Z,-12.93
2024-01-07T14:21:20.372Z,-12.95
2024-01-07T14:26:25.118Z,-13.00
2024-01-07T14:31:28.476Z,-13.09
2024-01-07T14:36:32.072Z,-13.19
2024-01-07T14:41:35.152Z,-13.28
2024-01-07T14:46:38.586Z,-13.38
2024-01-07T14:51:41.912Z,-13.44
2024-01-07T14:56:45.191Z,-13.48
2024-01-07T15:01:48.293Z,-13.53
2024-01-07T15:06:51.548Z,-13.59
2024-01-07T15:11:56.395Z,-13.66
2024-01-07T15:17:00.302Z,-13.73
2024-01-07T15:22:04.629Z,-13.79
2024-01-07T15:27:08.041Z,-13.85
2024-01-07T15:32:11.535Z,-13.92
2024-01-07T15:37:14.787Z,-13.97
2024-01-07T15:42:18.285Z,-13.99
2024-01-07T15:47:21.949Z,-14.01
2024-01-07T15:52:25.176Z,-14.03
2024-01-07T15:57:28.437Z,-14.02
2024-01-07T16:02:31.830Z,-14.01
2024-01-07T16:07:35.167Z,-14.03
2024-01-07T16:12:38.764Z,-14.02
2024-01-07T16:17:43.890Z,-13.96
2024-01-07T16:22:47.176Z,-13.94
2024-01-07T16:27:50.547Z,-13.93
2024-01-07T16:32:53.854Z,-13.91
2024-01-07T16:37:57.205Z,-13.89
2024-01-07T16:43:03.979Z,-13.87
2024-01-07T16:48:07.658Z,-13.87
2024-01-07T16:53:10.927Z,-13.88
2024-01-07T16:58:15.102Z,-13.90
2024-01-07T17:03:18.136Z,-13.95
2024-01-07T17:08:21.429Z,-13.99
2024-01-07T17:13:24.549Z,-14.04
2024-01-07T17:18:27.770Z,-14.06
2024-01-07T17:23:31.238Z,-14.11
2024-01-07T17:28:34.434Z,-14.12
2024-01-07T17:33:38.184Z,-14.16
2024-01-07T17:38:41.386Z,-14.17
2024-01-07T17:43:44.836Z,-14.21
2024-01-07T17:48:48.232Z,-14.21
2024-01-07T17:53:51.772Z,-14.24
2024-01-07T17:58:55.120Z,-14.25
2024-01-07T18:03:58.354Z,-14.30
2024-01-07T18:09:01.521Z,-14.31
2024-01-07T18:14:04.913Z,-14.33
2024-01-07T18:19:08.013Z,-14.32
2024-01-07T18:24:10.986Z,-14.31
2024-01-07T18:29:14.316Z,-14.27
2024-01-07T18:34:17.585Z,-14.24
2024-01-07T18:39:20.641Z,-14.21
2024-01-07T18:44:26.916Z,-14.20
2024-01-07T18:49:30.247Z,-14.22
2024-01-07T18:54:33.686Z,-14.24
2024-01-07T18:59:37.278Z,-14.27
2024-01-07T19:04:40.891Z,-14.30
2024-01-07T19:09:43.993Z,-14.30
2024-01-07T19:14:47.100Z,-14.31
2024-01-07T19:19:51.365Z,-14.31
2024-01-07T19:24:54.863Z,-14.30
2024-01-07T19:29:57.837Z,-14.32
2024-01-07T19:35:01.008Z,-14.36
2024-01-07T19:40:04.817Z,-14.43
2024-01-07T19:45:08.693Z,-14.47
2024-01-07T19:50:11.962Z,-14.49
2024-01-07T19:55:15.252Z,-14.47
2024-01-07T20:00:19.448Z,-14.49
2024-01-07T20:05:22.615Z,-14.49
2024-01-07T20:10:25.920Z,-14.48
2024-01-07T20:15:29.187Z,-14.49
2024-01-07T20:20:35.714Z,-14.51
2024-01-07T20:25:39.856Z,-14.53
2024-01-07T20:30:43.168Z,-14.58
2024-01-07T20:35:46.355Z,-14.60
2024-01-07T20:40:49.497Z,-14.63
2024-01-07T20:45:53.406Z,-14.69
2024-01-07T20:50:56.525Z,-14.71
2024-01-07T20:56:00.342Z,-14.75
2024-01-07T21:01:03.939Z,-14.83
2024-01-07T21:06:07.367Z,-14.97
2024-01-07T21:11:10.569Z,-15.11
2024-01-07T21:16:13.806Z,-15.23
2024-01-07T21:21:17.217Z,-15.30
2024-01-07T21:26:20.369Z,-15.36
2024-01-07T21:31:23.746Z,-15.42
2024-01-07T21:36:26.859Z,-15.49
2024-01-07T21:41:29.863Z,-15.56
2024-01-07T21:46:35.452Z,-15.61
2024-01-07T21:51:38.561Z,-15.64
2024-01-07T21:56:41.760Z,-15.66
2024-01-07T22:01:45.020Z,-15.70
2024-01-07T22:06:48.333Z,-15.74
2024-01-07T22:11:51.597Z,-15.75
2024-01-07T22:16:54.925Z,-15.76
2024-01-07T22:22:00.049Z,-15.77
2024-01-07T22:27:04.232Z,-15.78
2024-01-07T22:32:07.459Z,-15.82
2024-01-07T22:37:10.714Z,-15.86
2024-01-07T22:42:13.827Z,-15.89
2024-01-07T22:47:17.118Z,-15.97
2024-01-07T22:52:21.336Z,-16.03
2024-01-07T22:57:26.065Z,-16.08
2024-01-07T23:02:29.281Z,-16.18
2024-01-07T23:07:32.442Z,-16.25
2024-01-07T23:12:35.655Z,-16.32
2024-01-07T23:17:39.046Z,-16.40
2024-01-07T23:22:42.233Z,-16.49
2024-01-07T23:27:45.494Z,-16.55
2024-01-07T23:32:48.663Z,-16.57
2024-01-07T23:37:51.953Z,-16.62
2024-01-07T23:42:55.126Z,-16.63
2024-01-07T23:47:58.270Z,-16.63
2024-01-07T23:53:01.454Z,-16.63
2024-01-07T23:58:04.963Z,-16.65
